Thursday, July 2, 2015, 5:24 PM EDT
Back to Local

KCXY, Harrisburg Capital City

Location: New Cumberland, PA, United States Lat: 40.217
Local Time: 5:24 PM EDT (21:24 GMT) Lon: -76.85
Time Zone: US/Eastern Elev: 347 ft

Show me the last for .
Show Decoded

2015-07-02 16:56 METAR KCXY 022056Z 19004KT 10SM CLR 24/17 A2989 RMK AO2 SLP121 T02390172 57004 =
2015-07-02 15:56 METAR KCXY 021956Z 19003KT 10SM CLR 24/16 A2989 RMK AO2 SLP121 T02390156 =
2015-07-02 14:56 METAR KCXY 021856Z 20004KT 10SM R08/5000VP6000FT SCT075 OVC110 24/15 A2990 RMK
                 AO2 SLP124 T02390150 =
2015-07-02 13:56 METAR KCXY 021756Z 04003KT 10SM BKN100 25/15 A2990 RMK AO2 SLP125 T02500150
                 10250 20194 58004 =
2015-07-02 12:56 METAR KCXY 021656Z 00000KT 10SM FEW070 SCT100 24/15 A2991 RMK AO2 SLP127
                 T02440150 =
2015-07-02 11:56 METAR KCXY 021556Z 00000KT 10SM CLR 24/16 A2991 RMK AO2 SLP127 T02440156 =
2015-07-02 10:56 METAR KCXY 021456Z 00000KT 10SM CLR 24/15 A2991 RMK AO2 SLP129 T02440150 58004 =
2015-07-02 09:56 METAR KCXY 021356Z 00000KT 10SM CLR 23/16 A2992 RMK AO2 SLP130 T02330161 =
2015-07-02 07:56 METAR KCXY 021156Z 27003KT 6SM HZ CLR 19/16 A2992 RMK AO2 SLP132 T01940156 10194
                 20156 53008 =
2015-07-02 06:56 METAR KCXY 021056Z 00000KT 6SM BR CLR 17/15 A2991 RMK AO2 SLP127 T01670150 =
2015-07-02 05:56 METAR KCXY 020956Z AUTO 00000KT 5SM BR CLR 16/14 A2990 RMK AO2 SLP125 T01610144
                 =
2015-07-02 04:56 METAR KCXY 020856Z AUTO 25003KT 7SM SCT075 16/14 A2990 RMK AO2 SLP124 T01610144
                 53000 =
2015-07-02 03:56 METAR KCXY 020756Z AUTO 00000KT 8SM FEW075 17/15 A2989 RMK AO2 SLP122 T01720150
                 =
2015-07-02 02:56 METAR KCXY 020656Z AUTO 24004KT 9SM SCT080 18/14 A2990 RMK AO2 SLP124 T01780144
                 =
2015-07-02 00:56 METAR KCXY 020456Z AUTO 23004KT 8SM CLR 18/16 A2990 RMK AO2 SLP125 T01780156
                 402720178 =
2015-07-01 23:56 METAR KCXY 020356Z AUTO 00000KT 9SM CLR 20/15 A2991 RMK AO2 SLP129 T02000150 =
2015-07-01 22:56 METAR KCXY 020256Z AUTO 00000KT 10SM FEW080 19/15 A2991 RMK AO2 SLP127 T01940150
                 51019 =
2015-07-01 20:56 METAR KCXY 020056Z AUTO 28004KT 10SM FEW075 23/14 A2987 RMK AO2 SLP116 T02330144
                 =
2015-07-01 19:56 METAR KCXY 012356Z 26006KT 10SM BKN075 25/14 A2985 RMK AO2 SLP107 T02500139
                 10272 20250 53007 =
2015-07-01 17:56 METAR KCXY 012156Z 25011KT 10SM BKN060 27/13 A2983 RMK AO2 SLP100 T02670133 =

Support USWX by starting your Amazon purchase here.